Time;durP1;ratioP1;P1;durP2;ratioP2;P2;SDS_P1;SDS_P2;PMS_P1;PMS_P2;Temp;Humidity;BMP_temperature;BMP_pressure;BME280_temperature;BME280_humidity;BME280_pressure;Samples;Min_cycle;Max_cycle;Signal;HPM_P1;HPM_P2
2022/04/15 00:01:28;;;;;;;;;;;21.50;46.70;;;;;;5094912;28;19927;-44
2022/04/15 00:03:58;;;;;;;;;;;21.50;46.60;;;;;;5097373;28;19924;-47
2022/04/15 00:06:25;;;;;;;;;;;21.50;46.60;;;;;;5097616;28;19970;-45
2022/04/15 00:08:52;;;;;;;;;;;21.50;46.60;;;;;;5096658;28;19931;-46
2022/04/15 00:11:19;;;;;;;;;;;21.50;46.70;;;;;;5098045;28;19977;-46
2022/04/15 00:13:47;;;;;;;;;;;21.50;46.70;;;;;;5098007;28;19924;-47
2022/04/15 00:16:14;;;;;;;;;;;21.50;46.70;;;;;;5096074;28;19969;-48
2022/04/15 00:18:43;;;;;;;;;;;21.50;46.60;;;;;;5097326;28;20356;-44
2022/04/15 00:21:10;;;;;;;;;;;21.50;46.60;;;;;;5097217;28;19970;-45
2022/04/15 00:23:38;;;;;;;;;;;21.50;46.60;;;;;;5096769;28;19934;-45
2022/04/15 00:26:05;;;;;;;;;;;21.50;46.60;;;;;;5095786;28;20388;-49
2022/04/15 00:28:32;;;;;;;;;;;21.50;46.60;;;;;;5096864;28;19924;-47
2022/04/15 00:31:00;;;;;;;;;;;21.50;46.70;;;;;;5096821;28;20379;-44
2022/04/15 00:33:27;;;;;;;;;;;21.50;46.70;;;;;;5096669;28;19924;-44
2022/04/15 00:35:54;;;;;;;;;;;21.50;46.70;;;;;;5097076;28;19931;-43
2022/04/15 00:38:21;;;;;;;;;;;21.50;46.70;;;;;;5096586;28;19924;-46
2022/04/15 00:40:48;;;;;;;;;;;21.50;46.70;;;;;;5095839;28;19973;-48
2022/04/15 00:43:15;;;;;;;;;;;21.50;46.70;;;;;;5096927;28;19924;-43
2022/04/15 00:45:45;;;;;;;;;;;21.50;46.70;;;;;;5096815;28;19931;-43
2022/04/15 00:48:13;;;;;;;;;;;21.50;46.70;;;;;;5095829;28;20268;-44
2022/04/15 00:50:40;;;;;;;;;;;21.50;46.70;;;;;;5096377;28;19924;-43
2022/04/15 00:53:10;;;;;;;;;;;21.50;46.70;;;;;;5096406;28;20022;-43
2022/04/15 00:55:38;;;;;;;;;;;21.50;46.70;;;;;;5095751;28;20372;-43
2022/04/15 00:58:06;;;;;;;;;;;21.50;46.70;;;;;;5096525;28;19924;-44
2022/04/15 01:00:35;;;;;;;;;;;21.50;46.70;;;;;;5078725;28;19957;-43
2022/04/15 01:03:03;;;;;;;;;;;21.50;46.70;;;;;;5083933;28;19931;-44
2022/04/15 01:05:31;;;;;;;;;;;21.50;46.70;;;;;;5076244;28;20015;-43
2022/04/15 01:08:01;;;;;;;;;;;21.50;46.70;;;;;;5075854;28;20375;-44
2022/04/15 01:10:28;;;;;;;;;;;21.50;46.70;;;;;;5066702;28;19977;-44
2022/04/15 01:12:56;;;;;;;;;;;21.50;46.70;;;;;;5077909;28;20380;-43
2022/04/15 01:15:44;;;;;;;;;;;21.50;46.70;;;;;;5095930;28;19924;-43
2022/04/15 01:18:11;;;;;;;;;;;21.50;46.70;;;;;;5083066;28;19974;-43
2022/04/15 01:20:39;;;;;;;;;;;21.50;46.70;;;;;;5075561;28;19933;-47
2022/04/15 01:23:09;;;;;;;;;;;21.50;46.70;;;;;;5075447;28;19974;-44
2022/04/15 01:25:37;;;;;;;;;;;21.50;46.70;;;;;;5084090;28;20399;-44
2022/04/15 01:28:04;;;;;;;;;;;21.50;46.70;;;;;;5095746;28;19939;-47
2022/04/15 01:30:31;;;;;;;;;;;21.50;46.70;;;;;;5077807;28;20011;-51
2022/04/15 01:32:58;;;;;;;;;;;21.50;46.70;;;;;;5094316;28;19935;-51
2022/04/15 01:35:31;;;;;;;;;;;21.50;46.70;;;;;;5095938;28;20295;-49
2022/04/15 01:37:59;;;;;;;;;;;21.50;46.70;;;;;;5095790;28;19996;-50
2022/04/15 01:40:26;;;;;;;;;;;21.40;46.70;;;;;;5094553;28;19938;-51
2022/04/15 01:42:53;;;;;;;;;;;21.40;46.70;;;;;;5077541;28;20102;-46
2022/04/15 01:45:20;;;;;;;;;;;21.40;46.70;;;;;;5095410;28;20429;-50
2022/04/15 01:47:49;;;;;;;;;;;21.50;46.70;;;;;;5089598;28;19928;-48
2022/04/15 01:50:16;;;;;;;;;;;21.50;46.70;;;;;;5074958;28;19931;-51
2022/04/15 01:52:43;;;;;;;;;;;21.40;46.70;;;;;;5057684;28;19974;-45
2022/04/15 01:55:10;;;;;;;;;;;21.40;46.70;;;;;;5077171;28;19983;-51
2022/04/15 01:57:37;;;;;;;;;;;21.40;46.70;;;;;;5095497;28;20359;-49
2022/04/15 02:00:04;;;;;;;;;;;21.40;46.70;;;;;;5095339;28;19931;-52
2022/04/15 02:02:31;;;;;;;;;;;21.40;46.70;;;;;;5093821;28;20277;-51
2022/04/15 02:04:59;;;;;;;;;;;21.40;46.70;;;;;;5095293;28;19934;-47
2022/04/15 02:07:26;;;;;;;;;;;21.40;46.70;;;;;;5094971;28;19924;-49
2022/04/15 02:09:53;;;;;;;;;;;21.40;46.70;;;;;;5094881;28;19963;-51
2022/04/15 02:12:20;;;;;;;;;;;21.40;46.70;;;;;;5094097;28;19978;-46
2022/04/15 02:14:47;;;;;;;;;;;21.40;46.70;;;;;;5094838;28;19967;-51
2022/04/15 02:17:14;;;;;;;;;;;21.40;46.70;;;;;;5078048;28;20041;-45
2022/04/15 02:19:41;;;;;;;;;;;21.40;46.70;;;;;;5093930;28;19924;-51
2022/04/15 02:22:08;;;;;;;;;;;21.40;46.70;;;;;;5094444;28;19932;-44
2022/04/15 02:24:35;;;;;;;;;;;21.40;46.70;;;;;;5094031;28;20411;-49
2022/04/15 02:27:02;;;;;;;;;;;21.40;46.70;;;;;;5093751;28;19924;-46
2022/04/15 02:29:29;;;;;;;;;;;21.40;46.80;;;;;;5094854;28;19924;-44
2022/04/15 02:31:56;;;;;;;;;;;21.40;46.80;;;;;;5094763;28;19924;-43
2022/04/15 02:34:23;;;;;;;;;;;21.40;46.70;;;;;;5093564;28;19924;-50
2022/04/15 02:36:50;;;;;;;;;;;21.40;46.70;;;;;;5094376;28;19924;-48
2022/04/15 02:39:17;;;;;;;;;;;21.40;46.70;;;;;;5094306;28;19924;-45
2022/04/15 02:41:44;;;;;;;;;;;21.40;46.70;;;;;;5093183;28;20384;-47
2022/04/15 02:44:11;;;;;;;;;;;21.40;46.70;;;;;;5094635;28;20334;-49
2022/04/15 02:46:38;;;;;;;;;;;21.40;46.80;;;;;;5094577;28;19924;-45
2022/04/15 02:49:05;;;;;;;;;;;21.40;46.80;;;;;;5083410;28;19928;-47
2022/04/15 02:51:33;;;;;;;;;;;21.40;46.80;;;;;;5074184;28;19925;-44
2022/04/15 02:54:00;;;;;;;;;;;21.40;46.80;;;;;;5074165;28;19925;-44
2022/04/15 02:56:27;;;;;;;;;;;21.40;46.80;;;;;;5081509;28;19969;-49
2022/04/15 02:58:54;;;;;;;;;;;21.40;46.80;;;;;;5076346;28;20287;-44
2022/04/15 03:01:21;;;;;;;;;;;21.40;46.80;;;;;;5094209;28;19924;-43
2022/04/15 03:03:48;;;;;;;;;;;21.40;46.80;;;;;;5086132;28;19928;-44
2022/04/15 03:06:15;;;;;;;;;;;21.40;46.80;;;;;;5073810;28;19924;-44
2022/04/15 03:08:42;;;;;;;;;;;21.40;46.80;;;;;;5074040;28;19924;-44
2022/04/15 03:11:09;;;;;;;;;;;21.40;46.90;;;;;;5077848;28;20280;-45
2022/04/15 03:13:36;;;;;;;;;;;21.40;46.80;;;;;;5076088;28;19932;-44
2022/04/15 03:16:04;;;;;;;;;;;21.40;46.90;;;;;;5094151;28;19925;-43
2022/04/15 03:18:31;;;;;;;;;;;21.40;46.80;;;;;;5092929;28;20450;-43
2022/04/15 03:20:58;;;;;;;;;;;21.40;46.90;;;;;;5093665;28;19924;-48
2022/04/15 03:23:25;;;;;;;;;;;21.40;46.80;;;;;;5093632;28;19924;-44
2022/04/15 03:25:52;;;;;;;;;;;21.40;46.90;;;;;;5092846;28;19954;-45
2022/04/15 03:28:19;;;;;;;;;;;21.40;46.80;;;;;;5093669;28;19928;-46
2022/04/15 03:30:46;;;;;;;;;;;21.40;46.80;;;;;;5093999;28;20288;-44
2022/04/15 03:33:13;;;;;;;;;;;21.40;46.80;;;;;;5093869;28;20330;-45
2022/04/15 03:35:40;;;;;;;;;;;21.40;46.80;;;;;;5094890;28;20379;-48
2022/04/15 03:38:07;;;;;;;;;;;21.40;46.80;;;;;;5097846;28;19985;-47
2022/04/15 03:40:34;;;;;;;;;;;21.40;46.80;;;;;;5097726;28;19924;-43
2022/04/15 03:43:03;;;;;;;;;;;21.40;46.80;;;;;;5096850;28;20395;-44
2022/04/15 03:45:31;;;;;;;;;;;21.40;46.80;;;;;;5098022;28;20287;-44
2022/04/15 03:47:58;;;;;;;;;;;21.40;46.80;;;;;;5097994;28;20342;-44
2022/04/15 03:50:25;;;;;;;;;;;21.40;46.80;;;;;;5096488;28;19928;-45
2022/04/15 03:52:53;;;;;;;;;;;21.40;46.90;;;;;;5097600;28;19924;-45
2022/04/15 03:55:21;;;;;;;;;;;21.40;46.80;;;;;;5079953;28;20297;-44
2022/04/15 03:57:49;;;;;;;;;;;21.40;46.90;;;;;;5078932;28;19924;-44
2022/04/15 04:00:17;;;;;;;;;;;21.40;46.90;;;;;;5097692;28;19924;-43
2022/04/15 04:02:45;;;;;;;;;;;21.40;46.90;;;;;;5097296;28;19963;-45
2022/04/15 04:05:13;;;;;;;;;;;21.40;46.90;;;;;;5096636;28;19924;-44
2022/04/15 04:07:40;;;;;;;;;;;21.40;46.90;;;;;;5097583;28;19989;-45
2022/04/15 04:10:07;;;;;;;;;;;21.40;46.90;;;;;;5079593;28;19935;-45
2022/04/15 04:12:35;;;;;;;;;;;21.40;46.90;;;;;;5096622;28;20299;-44
2022/04/15 04:15:03;;;;;;;;;;;21.40;46.90;;;;;;5097175;28;20375;-43
2022/04/15 04:17:30;;;;;;;;;;;21.40;46.90;;;;;;5097117;28;19928;-43
2022/04/15 04:19:57;;;;;;;;;;;21.40;46.90;;;;;;5096572;28;19986;-44
2022/04/15 04:22:28;;;;;;;;;;;21.40;46.90;;;;;;5096748;28;19978;-44
2022/04/15 04:24:56;;;;;;;;;;;21.40;46.90;;;;;;5096988;28;20346;-45
2022/04/15 04:27:23;;;;;;;;;;;21.40;46.90;;;;;;5096003;28;19924;-44
2022/04/15 04:29:50;;;;;;;;;;;21.40;46.90;;;;;;5096856;28;19932;-45
2022/04/15 04:32:18;;;;;;;;;;;21.30;46.90;;;;;;5097072;28;19928;-43
2022/04/15 04:34:45;;;;;;;;;;;21.40;47.00;;;;;;5096004;28;19928;-43
2022/04/15 04:37:12;;;;;;;;;;;21.40;46.90;;;;;;5096729;28;19924;-44
2022/04/15 04:39:39;;;;;;;;;;;21.40;46.90;;;;;;5096590;28;19928;-44
2022/04/15 04:42:06;;;;;;;;;;;21.40;46.90;;;;;;5095731;28;19928;-43
2022/04/15 04:44:35;;;;;;;;;;;21.40;46.90;;;;;;5096613;28;20410;-43
2022/04/15 04:47:02;;;;;;;;;;;21.40;46.90;;;;;;5078407;28;20048;-43
2022/04/15 04:49:29;;;;;;;;;;;21.40;46.90;;;;;;5093356;28;19928;-43
2022/04/15 04:51:56;;;;;;;;;;;21.40;46.90;;;;;;5059243;28;19924;-43
2022/04/15 04:54:23;;;;;;;;;;;21.30;46.90;;;;;;5076126;28;19925;-50
2022/04/15 04:56:50;;;;;;;;;;;21.40;46.90;;;;;;5076142;28;19928;-51
2022/04/15 04:59:17;;;;;;;;;;;21.40;46.90;;;;;;5096570;28;19931;-49
2022/04/15 05:01:44;;;;;;;;;;;21.40;46.90;;;;;;5096146;28;19930;-49
2022/04/15 05:04:11;;;;;;;;;;;21.40;46.90;;;;;;5096239;28;19924;-49
2022/04/15 05:06:38;;;;;;;;;;;21.40;46.90;;;;;;5076584;28;19929;-50
2022/04/15 05:09:05;;;;;;;;;;;21.40;46.90;;;;;;5076190;28;19925;-49
2022/04/15 05:11:32;;;;;;;;;;;21.30;46.90;;;;;;5076158;28;19939;-51
2022/04/15 05:13:59;;;;;;;;;;;21.40;46.90;;;;;;5092772;28;19928;-51
2022/04/15 05:16:26;;;;;;;;;;;21.40;46.90;;;;;;5095972;28;20044;-48
2022/04/15 05:18:53;;;;;;;;;;;21.40;46.90;;;;;;5096150;28;19950;-46
2022/04/15 05:21:20;;;;;;;;;;;21.40;46.90;;;;;;5079410;28;19925;-48
2022/04/15 05:23:47;;;;;;;;;;;21.40;46.90;;;;;;5075427;28;19946;-48
2022/04/15 05:26:14;;;;;;;;;;;21.40;46.90;;;;;;5075476;28;19924;-43
2022/04/15 05:28:41;;;;;;;;;;;21.40;46.90;;;;;;5088628;28;19924;-48
2022/04/15 05:31:09;;;;;;;;;;;21.40;46.90;;;;;;5095576;28;19968;-51
2022/04/15 05:33:36;;;;;;;;;;;21.40;46.90;;;;;;5095642;28;19967;-51
2022/04/15 05:36:03;;;;;;;;;;;21.40;46.90;;;;;;5083993;28;19964;-44
2022/04/15 05:38:30;;;;;;;;;;;21.40;46.90;;;;;;5075283;28;19931;-46
2022/04/15 05:40:57;;;;;;;;;;;21.40;46.90;;;;;;5075146;28;20434;-46
2022/04/15 05:43:24;;;;;;;;;;;21.40;46.90;;;;;;5066477;28;19924;-44
2022/04/15 05:45:51;;;;;;;;;;;21.40;46.90;;;;;;5095696;28;19928;-44
2022/04/15 05:48:18;;;;;;;;;;;21.40;46.90;;;;;;5095351;28;20019;-44
2022/04/15 05:50:45;;;;;;;;;;;21.40;46.90;;;;;;5069443;28;19924;-51
2022/04/15 05:53:13;;;;;;;;;;;21.40;46.90;;;;;;5075332;28;19924;-46
2022/04/15 05:55:40;;;;;;;;;;;21.40;46.90;;;;;;5074894;28;19929;-44
2022/04/15 05:58:10;;;;;;;;;;;21.40;46.90;;;;;;5079240;28;20387;-50
2022/04/15 06:00:37;;;;;;;;;;;21.40;46.90;;;;;;5094891;28;19924;-44
2022/04/15 06:03:07;;;;;;;;;;;21.40;46.90;;;;;;5094945;28;19924;-44
2022/04/15 06:05:35;;;;;;;;;;;21.40;46.90;;;;;;5093992;28;19931;-44
2022/04/15 06:08:02;;;;;;;;;;;21.40;46.90;;;;;;5094912;28;19928;-43
2022/04/15 06:10:30;;;;;;;;;;;21.40;46.90;;;;;;5094900;28;20022;-43
2022/04/15 06:13:09;;;;;;;;;;;21.40;46.90;;;;;;5093976;28;20015;-44
2022/04/15 06:15:41;;;;;;;;;;;21.40;46.90;;;;;;5095104;28;19959;-43
2022/04/15 06:18:11;;;;;;;;;;;21.40;46.90;;;;;;5094721;28;20019;-48
2022/04/15 06:20:41;;;;;;;;;;;21.40;46.90;;;;;;5094017;28;19985;-47
2022/04/15 06:23:08;;;;;;;;;;;21.40;46.90;;;;;;5094538;28;19924;-43
2022/04/15 06:25:35;;;;;;;;;;;21.40;46.90;;;;;;5094516;28;19924;-45
2022/04/15 06:28:07;;;;;;;;;;;21.40;46.90;;;;;;5076722;28;19936;-49
2022/04/15 06:30:34;;;;;;;;;;;21.40;46.90;;;;;;5094466;28;20387;-47
2022/04/15 06:33:01;;;;;;;;;;;21.40;46.90;;;;;;5094673;28;19924;-44
2022/04/15 06:35:29;;;;;;;;;;;21.40;46.90;;;;;;5092969;28;19931;-43
2022/04/15 06:37:56;;;;;;;;;;;21.40;46.90;;;;;;5074369;28;19928;-44
2022/04/15 06:40:22;;;;;;;;;;;21.40;46.90;;;;;;5074035;28;19978;-43
2022/04/15 06:42:49;;;;;;;;;;;21.40;46.90;;;;;;5073631;28;19932;-44
2022/04/15 06:45:22;;;;;;;;;;;21.40;46.90;;;;;;5089123;28;19924;-46
2022/04/15 06:47:49;;;;;;;;;;;21.40;46.90;;;;;;5073920;28;19971;-45
2022/04/15 06:50:16;;;;;;;;;;;21.40;46.90;;;;;;5056477;28;19978;-43
2022/04/15 06:52:43;;;;;;;;;;;21.40;46.90;;;;;;5092302;28;19931;-44
2022/04/15 06:55:10;;;;;;;;;;;21.40;46.90;;;;;;5094036;28;19924;-43
2022/04/15 06:57:37;;;;;;;;;;;21.40;46.90;;;;;;5094404;28;19924;-45
2022/04/15 07:00:05;;;;;;;;;;;21.40;46.90;;;;;;5093335;28;19924;-43
2022/04/15 07:02:34;;;;;;;;;;;21.40;46.90;;;;;;5093957;28;19924;-43
2022/04/15 07:05:02;;;;;;;;;;;21.40;46.90;;;;;;5076550;28;19928;-43
2022/04/15 07:07:29;;;;;;;;;;;21.40;46.90;;;;;;5093170;28;20387;-46
2022/04/15 07:09:56;;;;;;;;;;;21.40;46.90;;;;;;5093734;28;19928;-45
2022/04/15 07:12:23;;;;;;;;;;;21.40;46.90;;;;;;5076038;28;19927;-45
2022/04/15 07:14:50;;;;;;;;;;;21.40;46.90;;;;;;5092935;28;19924;-43
2022/04/15 07:17:17;;;;;;;;;;;21.40;46.90;;;;;;5093860;28;19946;-43
2022/04/15 07:19:44;;;;;;;;;;;21.40;46.90;;;;;;5094098;28;20007;-43
2022/04/15 07:22:11;;;;;;;;;;;21.40;46.90;;;;;;5092817;28;19924;-42
2022/04/15 07:24:38;;;;;;;;;;;21.40;46.90;;;;;;5075954;28;19924;-43
2022/04/15 07:27:05;;;;;;;;;;;21.40;46.90;;;;;;5094759;28;20225;-43
2022/04/15 07:29:32;;;;;;;;;;;21.40;46.90;;;;;;5074796;28;19946;-43
2022/04/15 07:31:59;;;;;;;;;;;21.40;46.90;;;;;;5093474;28;19927;-46
2022/04/15 07:34:27;;;;;;;;;;;21.40;46.90;;;;;;5093834;28;19924;-44
2022/04/15 07:36:54;;;;;;;;;;;21.40;46.90;;;;;;5075334;28;19924;-44
2022/04/15 07:39:22;;;;;;;;;;;21.40;46.90;;;;;;5075705;28;19937;-43
2022/04/15 07:41:50;;;;;;;;;;;21.40;46.90;;;;;;5093964;28;19928;-44
2022/04/15 07:44:18;;;;;;;;;;;21.40;46.90;;;;;;5092523;28;19924;-43
2022/04/15 07:46:45;;;;;;;;;;;21.40;46.90;;;;;;5075450;28;19970;-43
2022/04/15 07:49:13;;;;;;;;;;;21.40;46.90;;;;;;5093778;28;19955;-43
2022/04/15 07:51:40;;;;;;;;;;;21.40;46.90;;;;;;5089252;28;19932;-43
2022/04/15 07:54:07;;;;;;;;;;;21.40;46.90;;;;;;5073273;28;20347;-46
2022/04/15 07:56:35;;;;;;;;;;;21.40;46.90;;;;;;5073545;28;19924;-43
2022/04/15 07:59:03;;;;;;;;;;;21.40;46.90;;;;;;5075498;28;20448;-44
2022/04/15 08:01:30;;;;;;;;;;;21.40;46.90;;;;;;5093278;28;19979;-43
2022/04/15 08:03:58;;;;;;;;;;;21.40;46.90;;;;;;5093319;28;19924;-44
2022/04/15 08:06:26;;;;;;;;;;;21.40;46.90;;;;;;5093275;28;20338;-46
2022/04/15 08:08:54;;;;;;;;;;;21.40;46.90;;;;;;5093563;28;20322;-46
2022/04/15 08:11:25;;;;;;;;;;;21.40;46.90;;;;;;5093637;28;19968;-47
2022/04/15 08:13:52;;;;;;;;;;;21.50;46.90;;;;;;5093050;28;20276;-45
2022/04/15 08:16:20;;;;;;;;;;;21.50;46.90;;;;;;5093402;28;19924;-48
2022/04/15 08:18:49;;;;;;;;;;;21.50;46.90;;;;;;5093293;28;19924;-44
2022/04/15 08:21:17;;;;;;;;;;;21.50;46.90;;;;;;5093926;28;19931;-50
2022/04/15 08:23:44;;;;;;;;;;;21.50;46.90;;;;;;5095914;28;20387;-52
2022/04/15 08:26:11;;;;;;;;;;;21.50;46.80;;;;;;5096913;28;19928;-49
2022/04/15 08:28:38;;;;;;;;;;;21.50;46.80;;;;;;5096883;28;20372;-51
2022/04/15 08:31:06;;;;;;;;;;;21.50;46.80;;;;;;5095829;28;19924;-46
2022/04/15 08:33:34;;;;;;;;;;;21.50;46.80;;;;;;5097058;28;19928;-52
2022/04/15 08:36:01;;;;;;;;;;;21.50;46.80;;;;;;5096736;28;19998;-46
2022/04/15 08:38:28;;;;;;;;;;;21.50;46.80;;;;;;5095624;28;19931;-51
2022/04/15 08:40:59;;;;;;;;;;;21.50;46.70;;;;;;5097268;28;19967;-44
2022/04/15 08:43:29;;;;;;;;;;;21.50;46.70;;;;;;5096912;28;19924;-43
2022/04/15 08:45:56;;;;;;;;;;;21.50;46.70;;;;;;5095471;28;19969;-44
2022/04/15 08:48:24;;;;;;;;;;;21.50;46.70;;;;;;5097426;28;19924;-47
2022/04/15 08:50:51;;;;;;;;;;;21.50;46.70;;;;;;5096497;28;19924;-46
2022/04/15 08:53:22;;;;;;;;;;;21.60;46.70;;;;;;5084058;28;19924;-44
2022/04/15 08:55:49;;;;;;;;;;;21.60;46.70;;;;;;5076141;28;19925;-44
2022/04/15 08:58:16;;;;;;;;;;;21.60;46.70;;;;;;5076344;28;20292;-45
2022/04/15 09:00:43;;;;;;;;;;;21.60;46.60;;;;;;5087283;28;19977;-46
2022/04/15 09:03:10;;;;;;;;;;;21.60;47.20;;;;;;5096516;28;19935;-46
2022/04/15 09:05:37;;;;;;;;;;;21.60;46.60;;;;;;5096529;28;20011;-45
2022/04/15 09:08:04;;;;;;;;;;;21.70;46.60;;;;;;5088047;28;19925;-46
2022/04/15 09:10:33;;;;;;;;;;;21.70;46.50;;;;;;5075772;28;19924;-44
2022/04/15 09:13:01;;;;;;;;;;;21.70;46.40;;;;;;5076104;28;19928;-47
2022/04/15 09:15:33;;;;;;;;;;;21.70;46.40;;;;;;5084339;28;19924;-44
2022/04/15 09:18:01;;;;;;;;;;;21.70;46.40;;;;;;5078378;28;19932;-49
2022/04/15 09:20:33;;;;;;;;;;;21.70;46.40;;;;;;5095706;28;20407;-44
2022/04/15 09:23:10;;;;;;;;;;;21.70;46.30;;;;;;5094677;28;19928;-52
2022/04/15 09:25:38;;;;;;;;;;;21.80;46.40;;;;;;5096183;28;19931;-46
2022/04/15 09:28:06;;;;;;;;;;;21.80;46.40;;;;;;5095774;28;20368;-49
2022/04/15 09:30:36;;;;;;;;;;;21.70;46.30;;;;;;5094578;28;19931;-44
2022/04/15 09:33:03;;;;;;;;;;;21.70;46.30;;;;;;5095618;28;20380;-43
2022/04/15 09:35:31;;;;;;;;;;;21.70;46.30;;;;;;5095917;28;19924;-44
2022/04/15 09:38:03;;;;;;;;;;;21.70;46.30;;;;;;5094586;28;19931;-43
2022/04/15 09:40:35;;;;;;;;;;;21.70;46.40;;;;;;5095728;28;20383;-47
2022/04/15 09:43:06;;;;;;;;;;;21.70;46.40;;;;;;5095837;28;19924;-46
2022/04/15 09:45:34;;;;;;;;;;;21.70;46.40;;;;;;5094308;28;19924;-44
2022/04/15 09:48:03;;;;;;;;;;;21.70;46.30;;;;;;5095695;28;19924;-44
2022/04/15 09:50:31;;;;;;;;;;;21.80;46.40;;;;;;5077747;28;19931;-49
2022/04/15 09:53:09;;;;;;;;;;;21.80;46.30;;;;;;5094934;28;19928;-43
2022/04/15 09:55:39;;;;;;;;;;;21.80;46.20;;;;;;5095582;28;20338;-44
2022/04/15 09:58:11;;;;;;;;;;;21.80;46.20;;;;;;5095500;28;20335;-47
2022/04/15 10:00:38;;;;;;;;;;;21.90;46.20;;;;;;5094182;28;19957;-44
2022/04/15 10:03:09;;;;;;;;;;;22.00;46.20;;;;;;5095100;28;19924;-44
2022/04/15 10:05:37;;;;;;;;;;;22.00;45.90;;;;;;5095106;28;19994;-44
2022/04/15 10:08:04;;;;;;;;;;;22.10;45.80;;;;;;5094115;28;19958;-50
2022/04/15 10:10:32;;;;;;;;;;;22.10;45.70;;;;;;5094944;28;19930;-44
2022/04/15 10:13:00;;;;;;;;;;;22.10;46.20;;;;;;5094934;28;19924;-46
2022/04/15 10:15:29;;;;;;;;;;;22.10;45.60;;;;;;5094540;28;19943;-47
2022/04/15 10:17:58;;;;;;;;;;;22.10;45.60;;;;;;5095134;28;20321;-50
2022/04/15 10:20:26;;;;;;;;;;;22.10;45.60;;;;;;5094640;28;19924;-44
2022/04/15 10:22:54;;;;;;;;;;;22.10;45.50;;;;;;5072687;28;19925;-43
2022/04/15 10:25:21;;;;;;;;;;;22.20;45.50;;;;;;5055134;28;20335;-44
2022/04/15 10:27:49;;;;;;;;;;;22.20;45.50;;;;;;5054530;28;19925;-43
2022/04/15 10:30:19;;;;;;;;;;;22.20;45.50;;;;;;5053836;28;20192;-44
2022/04/15 10:32:59;;;;;;;;;;;22.20;45.40;;;;;;5086042;28;20384;-44
2022/04/15 10:35:29;;;;;;;;;;;22.20;45.30;;;;;;5054637;28;20327;-49
2022/04/15 10:38:01;;;;;;;;;;;22.20;45.30;;;;;;5054240;28;19925;-44
2022/04/15 10:40:34;;;;;;;;;;;22.30;45.30;;;;;;5054294;28;19928;-44
2022/04/15 10:43:04;;;;;;;;;;;22.30;45.20;;;;;;5054137;28;20384;-44
2022/04/15 10:45:36;;;;;;;;;;;22.30;45.10;;;;;;5053837;28;19931;-46
2022/04/15 10:48:04;;;;;;;;;;;22.30;45.10;;;;;;5073719;28;19925;-44
2022/04/15 10:50:32;;;;;;;;;;;22.30;45.10;;;;;;5073932;28;20402;-44
2022/04/15 10:53:17;;;;;;;;;;;22.30;45.10;;;;;;5074276;28;19932;-44
2022/04/15 10:55:49;;;;;;;;;;;22.30;45.10;;;;;;5073812;28;19975;-44
2022/04/15 10:58:16;;;;;;;;;;;22.30;45.10;;;;;;5074242;28;19993;-44
2022/04/15 11:03:31;;;;;;;;;;;22.20;45.10;;;;;;5073951;28;20033;-44
2022/04/15 11:05:59;;;;;;;;;;;22.20;45.10;;;;;;5073838;28;20430;-44
2022/04/15 11:08:46;;;;;;;;;;;22.30;45.20;;;;;;5073099;28;19924;-43
2022/04/15 11:11:13;;;;;;;;;;;22.30;45.30;;;;;;5074048;28;19924;-44
2022/04/15 11:13:45;;;;;;;;;;;22.20;45.20;;;;;;5074076;28;19978;-44
2022/04/15 11:16:13;;;;;;;;;;;22.20;45.20;;;;;;5072822;28;19978;-45
2022/04/15 11:18:46;;;;;;;;;;;22.20;45.10;;;;;;5074861;28;19995;-44
2022/04/15 11:21:17;;;;;;;;;;;22.20;45.10;;;;;;5073801;28;19924;-47
2022/04/15 11:23:46;;;;;;;;;;;22.30;45.20;;;;;;5085933;28;19971;-44
2022/04/15 11:26:15;;;;;;;;;;;22.20;45.20;;;;;;5073598;28;19963;-49
2022/04/15 11:28:45;;;;;;;;;;;22.20;45.10;;;;;;5073559;28;20438;-47
2022/04/15 11:31:24;;;;;;;;;;;22.20;45.10;;;;;;5075324;28;19936;-47
2022/04/15 11:33:51;;;;;;;;;;;22.20;45.20;;;;;;5093973;28;20302;-48
2022/04/15 11:36:20;;;;;;;;;;;22.20;45.20;;;;;;5076191;28;20007;-49
2022/04/15 11:38:48;;;;;;;;;;;22.20;45.20;;;;;;5093132;28;19969;-50
2022/04/15 11:41:15;;;;;;;;;;;22.20;45.20;;;;;;5093508;28;19931;-47
2022/04/15 11:43:47;;;;;;;;;;;22.20;45.20;;;;;;5093951;28;20337;-49
2022/04/15 11:46:14;;;;;;;;;;;22.20;45.20;;;;;;5092732;28;20452;-47
2022/04/15 11:48:42;;;;;;;;;;;22.20;45.30;;;;;;5093568;28;19934;-50
2022/04/15 11:51:09;;;;;;;;;;;22.20;45.20;;;;;;5093486;28;19925;-44
2022/04/15 11:53:36;;;;;;;;;;;22.20;45.20;;;;;;5093852;28;20014;-46
2022/04/15 11:56:03;;;;;;;;;;;22.20;45.20;;;;;;5092836;28;19924;-47
2022/04/15 11:58:32;;;;;;;;;;;22.20;45.20;;;;;;5098641;28;19931;-50
2022/04/15 12:00:59;;;;;;;;;;;22.20;45.20;;;;;;5097359;28;19977;-49
2022/04/15 12:03:27;;;;;;;;;;;22.20;45.20;;;;;;5096849;28;19924;-47
2022/04/15 12:05:55;;;;;;;;;;;22.20;45.30;;;;;;5097690;28;19924;-49
2022/04/15 12:08:22;;;;;;;;;;;22.20;45.20;;;;;;5097332;28;19932;-46
2022/04/15 12:10:49;;;;;;;;;;;22.20;45.20;;;;;;5083421;28;19929;-47
2022/04/15 12:13:16;;;;;;;;;;;22.20;45.20;;;;;;5077304;28;19928;-46
2022/04/15 12:15:44;;;;;;;;;;;22.20;45.20;;;;;;5077225;28;19928;-52
2022/04/15 12:18:12;;;;;;;;;;;22.20;45.20;;;;;;5073635;28;20009;-48
2022/04/15 12:20:40;;;;;;;;;;;22.20;45.20;;;;;;5097260;28;20359;-45
2022/04/15 12:23:14;;;;;;;;;;;22.20;45.20;;;;;;5096839;28;19924;-47
2022/04/15 12:31:31;;;;;;;;;;;22.20;45.10;;;;;;5096885;28;19967;-44
2022/04/15 12:34:02;;;;;;;;;;;22.20;45.10;;;;;;5096494;28;19924;-44
2022/04/15 12:36:42;;;;;;;;;;;22.20;45.10;;;;;;5096872;28;19924;-46
2022/04/15 12:39:10;;;;;;;;;;;22.20;45.10;;;;;;5096784;28;19924;-43
2022/04/15 12:41:40;;;;;;;;;;;22.20;45.10;;;;;;5077569;28;19969;-44
2022/04/15 12:44:15;;;;;;;;;;;22.30;45.10;;;;;;5096936;28;19974;-44
2022/04/15 12:46:45;;;;;;;;;;;22.20;45.10;;;;;;5096377;28;19927;-44
2022/04/15 12:49:33;;;;;;;;;;;22.20;45.30;;;;;;5076685;28;19925;-46
2022/04/15 12:52:06;;;;;;;;;;;22.30;45.10;;;;;;5076437;28;20059;-44
2022/04/15 12:54:34;;;;;;;;;;;22.30;45.10;;;;;;5076096;28;19930;-46
2022/04/15 12:57:01;;;;;;;;;;;22.30;45.10;;;;;;5096391;28;19928;-44
2022/04/15 12:59:28;;;;;;;;;;;22.30;45.10;;;;;;5096688;28;19924;-45
2022/04/15 13:01:56;;;;;;;;;;;22.30;45.10;;;;;;5095499;28;19974;-44
2022/04/15 13:04:23;;;;;;;;;;;22.30;45.10;;;;;;5076328;28;19932;-46
2022/04/15 13:06:50;;;;;;;;;;;22.20;45.00;;;;;;5075550;28;20391;-44
2022/04/15 13:09:20;;;;;;;;;;;22.30;45.00;;;;;;5076273;28;19925;-44
2022/04/15 13:11:47;;;;;;;;;;;22.30;45.10;;;;;;5076312;28;19986;-45
2022/04/15 13:14:15;;;;;;;;;;;22.30;45.10;;;;;;5075853;28;19931;-44
2022/04/15 13:16:41;;;;;;;;;;;22.20;45.00;;;;;;5058048;28;19932;-44
2022/04/15 13:19:08;;;;;;;;;;;22.30;45.10;;;;;;5092878;28;19924;-44
2022/04/15 13:21:36;;;;;;;;;;;22.30;45.00;;;;;;5077924;28;19924;-44
2022/04/15 13:24:03;;;;;;;;;;;22.30;45.00;;;;;;5095890;28;19924;-45
2022/04/15 13:26:30;;;;;;;;;;;22.30;45.00;;;;;;5095475;28;19977;-44
2022/04/15 13:28:57;;;;;;;;;;;22.30;45.00;;;;;;5095756;28;19924;-46
2022/04/15 13:31:23;;;;;;;;;;;22.40;45.00;;;;;;5095670;28;19928;-44
2022/04/15 13:33:51;;;;;;;;;;;22.40;44.90;;;;;;5095081;28;19979;-47
2022/04/15 13:36:18;;;;;;;;;;;22.40;44.90;;;;;;5096006;28;20283;-44
2022/04/15 13:38:45;;;;;;;;;;;22.40;44.80;;;;;;5095927;28;19924;-44
2022/04/15 13:41:14;;;;;;;;;;;22.40;44.80;;;;;;5086624;28;19967;-45
2022/04/15 13:43:41;;;;;;;;;;;22.40;44.80;;;;;;5075576;28;19924;-45
2022/04/15 13:46:09;;;;;;;;;;;22.40;44.80;;;;;;5075223;28;19925;-44
2022/04/15 13:48:36;;;;;;;;;;;22.40;44.70;;;;;;5085572;28;20019;-44
2022/04/15 13:51:04;;;;;;;;;;;22.50;44.80;;;;;;5095272;28;19924;-45
2022/04/15 13:56:40;;;;;;;;;;;22.40;44.70;;;;;;5032521;28;19929;-48
2022/04/15 13:59:10;;;;;;;;;;;22.50;44.80;;;;;;5033295;28;19948;-44
2022/04/15 14:01:39;;;;;;;;;;;22.40;44.60;;;;;;5032851;28;19975;-46
2022/04/15 14:04:09;;;;;;;;;;;22.50;44.70;;;;;;5032057;28;19933;-46
2022/04/15 14:06:37;;;;;;;;;;;22.50;44.60;;;;;;5032869;28;19925;-44
2022/04/15 14:09:05;;;;;;;;;;;22.50;44.60;;;;;;5032885;28;19925;-44
2022/04/15 14:11:35;;;;;;;;;;;22.50;44.60;;;;;;5032130;28;19987;-44
2022/04/15 14:14:02;;;;;;;;;;;22.50;44.60;;;;;;5032747;28;19929;-44
2022/04/15 14:16:30;;;;;;;;;;;22.50;44.60;;;;;;5032615;28;19925;-45
2022/04/15 14:18:58;;;;;;;;;;;22.50;44.60;;;;;;5030991;28;20068;-48
2022/04/15 14:21:25;;;;;;;;;;;22.50;45.30;;;;;;5032474;28;20379;-46
2022/04/15 14:23:53;;;;;;;;;;;22.40;44.60;;;;;;5032548;28;19933;-43
2022/04/15 14:26:20;;;;;;;;;;;22.50;44.70;;;;;;5032121;28;19972;-46
2022/04/15 14:28:48;;;;;;;;;;;22.40;44.70;;;;;;5032503;28;19991;-47
2022/04/15 14:31:14;;;;;;;;;;;22.40;44.70;;;;;;5081102;28;20441;-44
2022/04/15 14:33:42;;;;;;;;;;;22.40;44.80;;;;;;5093538;28;19935;-45